Time;durP1;ratioP1;P1;durP2;ratioP2;P2;SDS_P1;SDS_P2;PMS_P1;PMS_P2;Temp;Humidity;BMP_temperature;BMP_pressure;BME280_temperature;BME280_humidity;BME280_pressure;Samples;Min_cycle;Max_cycle;Signal;HPM_P1;HPM_P2
2022/03/08 00:00:16;;;;;;;21.83;13.20;;;;;;;;;;5053485;28;20421;-64
2022/03/08 00:02:42;;;;;;;21.50;13.70;;;;;;;;;;5053339;28;20399;-68
2022/03/08 00:05:08;;;;;;;27.20;14.60;;;;;;;;;;5051999;28;20485;-67
2022/03/08 00:07:34;;;;;;;24.80;14.30;;;;;;;;;;5053434;28;20417;-63
2022/03/08 00:10:00;;;;;;;23.97;14.33;;;;;;;;;;5053278;28;20418;-62
2022/03/08 00:12:26;;;;;;;29.50;15.77;;;;;;;;;;5053320;28;20405;-62
2022/03/08 00:14:52;;;;;;;23.60;14.40;;;;;;;;;;5053416;28;20761;-61
2022/03/08 00:17:18;;;;;;;23.37;15.30;;;;;;;;;;5053372;28;20411;-61
2022/03/08 00:19:44;;;;;;;23.80;14.50;;;;;;;;;;5052358;28;20410;-60
2022/03/08 00:22:10;;;;;;;29.13;15.23;;;;;;;;;;5052904;28;20968;-65
2022/03/08 00:24:36;;;;;;;27.03;15.53;;;;;;;;;;5051897;28;20495;-62
2022/03/08 00:27:02;;;;;;;26.30;15.40;;;;;;;;;;5053122;28;20399;-62
2022/03/08 00:29:28;;;;;;;23.63;14.80;;;;;;;;;;5053185;28;20402;-63
2022/03/08 00:31:54;;;;;;;28.90;15.17;;;;;;;;;;5053017;28;20407;-61
2022/03/08 00:34:20;;;;;;;30.70;16.30;;;;;;;;;;5053152;28;20420;-61
2022/03/08 00:36:46;;;;;;;25.93;15.87;;;;;;;;;;5053030;28;20418;-65
2022/03/08 00:39:12;;;;;;;29.27;16.27;;;;;;;;;;5051640;28;20778;-63
2022/03/08 00:41:38;;;;;;;26.10;14.40;;;;;;;;;;5052887;28;20406;-64
2022/03/08 00:44:08;;;;;;;27.47;15.83;;;;;;;;;;5053081;28;20972;-69
2022/03/08 00:46:34;;;;;;;25.50;14.57;;;;;;;;;;5052933;28;20475;-64
2022/03/08 00:49:00;;;;;;;29.90;15.73;;;;;;;;;;5052880;28;20441;-65
2022/03/08 00:51:26;;;;;;;27.67;15.23;;;;;;;;;;5052879;28;20433;-67
2022/03/08 00:53:52;;;;;;;28.10;15.80;;;;;;;;;;5052869;28;20797;-68
2022/03/08 00:56:18;;;;;;;25.93;13.80;;;;;;;;;;5051509;28;20412;-66
2022/03/08 00:58:44;;;;;;;25.03;14.93;;;;;;;;;;5052736;28;20812;-67
2022/03/08 01:01:10;;;;;;;25.27;14.90;;;;;;;;;;5052686;28;20419;-67
2022/03/08 01:03:36;;;;;;;28.10;16.17;;;;;;;;;;5052646;28;20455;-69
2022/03/08 01:06:02;;;;;;;22.20;14.43;;;;;;;;;;5052758;28;20475;-65
2022/03/08 01:08:28;;;;;;;27.20;15.80;;;;;;;;;;5052805;28;20394;-66
2022/03/08 01:10:55;;;;;;;26.50;15.00;;;;;;;;;;5052774;28;20420;-61
2022/03/08 01:13:21;;;;;;;28.77;16.73;;;;;;;;;;5052773;28;20413;-62
2022/03/08 01:15:47;;;;;;;24.27;14.20;;;;;;;;;;5052726;28;20981;-65
2022/03/08 01:18:13;;;;;;;28.30;15.30;;;;;;;;;;5052812;28;20452;-62
2022/03/08 01:20:40;;;;;;;27.80;15.40;;;;;;;;;;5052373;28;20468;-62
2022/03/08 01:23:06;;;;;;;27.03;13.50;;;;;;;;;;5052719;28;20421;-62
2022/03/08 01:25:32;;;;;;;26.57;14.40;;;;;;;;;;5052533;28;20581;-62
2022/03/08 01:27:58;;;;;;;23.17;13.80;;;;;;;;;;5052396;28;20416;-67
2022/03/08 01:30:25;;;;;;;20.30;13.40;;;;;;;;;;5053751;28;20503;-73
2022/03/08 01:32:51;;;;;;;29.05;15.82;;;;;;;;;;5056409;28;20399;-71
2022/03/08 01:35:18;;;;;;;25.90;15.27;;;;;;;;;;5056336;28;20190;-63
2022/03/08 01:37:44;;;;;;;29.97;14.87;;;;;;;;;;5056128;28;20418;-71
2022/03/08 01:40:14;;;;;;;28.23;13.90;;;;;;;;;;5055966;28;20507;-69
2022/03/08 01:42:41;;;;;;;30.00;16.10;;;;;;;;;;5056275;28;20497;-63
2022/03/08 01:45:07;;;;;;;29.93;15.30;;;;;;;;;;5056057;28;20455;-68
2022/03/08 01:47:33;;;;;;;30.30;15.23;;;;;;;;;;5055969;28;20916;-70
2022/03/08 01:50:00;;;;;;;23.60;15.07;;;;;;;;;;5055964;28;20882;-67
2022/03/08 01:52:26;;;;;;;28.63;16.37;;;;;;;;;;5054712;28;20437;-69
2022/03/08 01:54:52;;;;;;;31.03;16.00;;;;;;;;;;5055922;28;20396;-65
2022/03/08 01:57:23;;;;;;;30.23;14.73;;;;;;;;;;5055681;28;20414;-72
2022/03/08 01:59:50;;;;;;;25.07;14.40;;;;;;;;;;5055710;28;20899;-68
2022/03/08 02:02:16;;;;;;;24.53;14.30;;;;;;;;;;5055667;28;20390;-70
2022/03/08 02:04:42;;;;;;;27.97;14.47;;;;;;;;;;5054142;28;20541;-70
2022/03/08 02:07:09;;;;;;;26.30;15.40;;;;;;;;;;5055765;28;20404;-65
2022/03/08 02:09:36;;;;;;;26.93;14.03;;;;;;;;;;5055536;28;20419;-71
2022/03/08 02:12:02;;;;;;;29.83;14.20;;;;;;;;;;5054246;28;20743;-63
2022/03/08 02:14:28;;;;;;;24.97;15.07;;;;;;;;;;5055446;28;20898;-65
2022/03/08 02:16:54;;;;;;;24.23;14.10;;;;;;;;;;5055535;28;20951;-67
2022/03/08 02:19:20;;;;;;;28.23;15.47;;;;;;;;;;5055274;28;20407;-72
2022/03/08 02:21:46;;;;;;;26.37;15.50;;;;;;;;;;5055445;28;20421;-65
2022/03/08 02:24:12;;;;;;;25.23;13.80;;;;;;;;;;5055375;28;20435;-63
2022/03/08 02:26:38;;;;;;;26.13;14.50;;;;;;;;;;5055273;28;20529;-61
2022/03/08 02:29:06;;;;;;;27.37;15.33;;;;;;;;;;5055180;28;20871;-61
2022/03/08 02:31:32;;;;;;;23.90;13.37;;;;;;;;;;5055218;28;20411;-61
2022/03/08 02:33:58;;;;;;;25.77;14.37;;;;;;;;;;5053984;28;20808;-65
2022/03/08 02:36:24;;;;;;;27.87;14.70;;;;;;;;;;5055263;28;20407;-61
2022/03/08 02:38:50;;;;;;;28.13;14.40;;;;;;;;;;5054931;28;20914;-72
2022/03/08 02:41:17;;;;;;;22.60;15.00;;;;;;;;;;5054684;28;20404;-72
2022/03/08 02:43:43;;;;;;;22.90;13.10;;;;;;;;;;5054457;28;20895;-72
2022/03/08 02:46:09;;;;;;;26.83;13.63;;;;;;;;;;5054780;28;20490;-71
2022/03/08 02:48:35;;;;;;;26.73;14.90;;;;;;;;;;5054847;28;20404;-72
2022/03/08 02:51:01;;;;;;;23.70;14.40;;;;;;;;;;5054783;28;20183;-72
2022/03/08 02:53:27;;;;;;;24.73;14.30;;;;;;;;;;5054761;28;20203;-73
2022/03/08 02:55:53;;;;;;;20.40;13.87;;;;;;;;;;5054892;28;20405;-73
2022/03/08 02:58:19;;;;;;;22.80;13.75;;;;;;;;;;5054636;28;20403;-73
2022/03/08 03:00:46;;;;;;;20.90;13.67;;;;;;;;;;5054550;28;20185;-71
2022/03/08 03:03:12;;;;;;;24.40;12.80;;;;;;;;;;5054477;28;20856;-73
2022/03/08 03:05:38;;;;;;;30.13;14.27;;;;;;;;;;5054587;28;20473;-72
2022/03/08 03:08:05;;;;;;;22.63;13.30;;;;;;;;;;5053171;28;20792;-74
2022/03/08 03:10:31;;;;;;;20.10;11.50;;;;;;;;;;5054371;28;20466;-73
2022/03/08 03:12:58;;;;;;;24.60;13.33;;;;;;;;;;5053164;28;20443;-70
2022/03/08 03:15:25;;;;;;;22.60;13.03;;;;;;;;;;5054407;28;20462;-73
2022/03/08 03:17:51;;;;;;;24.00;13.30;;;;;;;;;;5054284;28;20419;-73
2022/03/08 03:20:18;;;;;;;23.50;13.60;;;;;;;;;;5054144;28;20474;-73
2022/03/08 03:22:45;;;;;;;25.97;13.13;;;;;;;;;;5054173;28;20479;-73
2022/03/08 03:25:11;;;;;;;25.55;13.10;;;;;;;;;;5054077;28;20531;-65
2022/03/08 03:27:38;;;;;;;23.87;14.00;;;;;;;;;;5054174;28;20178;-70
2022/03/08 03:30:06;;;;;;;27.33;13.33;;;;;;;;;;5054026;28;20414;-71
2022/03/08 03:32:32;;;;;;;21.80;12.70;;;;;;;;;;5052825;28;20426;-73
2022/03/08 03:34:58;;;;;;;26.03;13.27;;;;;;;;;;5054002;28;20437;-74
2022/03/08 03:37:24;;;;;;;25.80;14.77;;;;;;;;;;5053946;28;20422;-74
2022/03/08 03:39:51;;;;;;;25.83;13.77;;;;;;;;;;5052607;28;20761;-73
2022/03/08 03:42:17;;;;;;;22.40;14.03;;;;;;;;;;5053981;28;20916;-72
2022/03/08 03:44:43;;;;;;;26.80;14.03;;;;;;;;;;5053854;28;20458;-71
2022/03/08 03:47:09;;;;;;;27.73;14.52;;;;;;;;;;5053811;28;20412;-73
2022/03/08 03:49:35;;;;;;;21.93;12.93;;;;;;;;;;5053787;28;20164;-73
2022/03/08 03:52:02;;;;;;;21.97;13.03;;;;;;;;;;5053640;28;20455;-73
2022/03/08 03:54:28;;;;;;;21.20;13.10;;;;;;;;;;5053561;28;20433;-71
2022/03/08 03:56:54;;;;;;;24.13;13.00;;;;;;;;;;5053619;28;20470;-73
2022/03/08 03:59:20;;;;;;;24.13;13.80;;;;;;;;;;5053368;28;20416;-73
2022/03/08 04:01:46;;;;;;;26.23;13.33;;;;;;;;;;5053602;28;20413;-73
2022/03/08 04:04:12;;;;;;;23.33;13.05;;;;;;;;;;5053451;28;20541;-73
2022/03/08 04:06:39;;;;;;;24.98;12.88;;;;;;;;;;5053479;28;20246;-62
2022/03/08 04:09:05;;;;;;;20.48;11.85;;;;;;;;;;5053474;28;20168;-63
2022/03/08 04:11:31;;;;;;;23.57;13.20;;;;;;;;;;5053521;28;20202;-62
2022/03/08 04:13:58;;;;;;;19.00;11.33;;;;;;;;;;5052197;28;20460;-63
2022/03/08 04:16:24;;;;;;;21.48;12.15;;;;;;;;;;5053412;28;20420;-63
2022/03/08 04:18:50;;;;;;;21.42;12.65;;;;;;;;;;5052150;28;20199;-67
2022/03/08 04:21:16;;;;;;;22.33;12.55;;;;;;;;;;5053430;28;20502;-63
2022/03/08 04:23:42;;;;;;;23.00;13.37;;;;;;;;;;5053269;28;20287;-64
2022/03/08 04:26:08;;;;;;;20.10;12.38;;;;;;;;;;5053381;28;20567;-66
2022/03/08 04:28:34;;;;;;;21.33;12.13;;;;;;;;;;5053238;28;20169;-64
2022/03/08 04:31:00;;;;;;;24.77;12.73;;;;;;;;;;5053477;28;20202;-67
2022/03/08 04:33:29;;;;;;;23.65;12.75;;;;;;;;;;5053257;28;20172;-65
2022/03/08 04:35:56;;;;;;;23.55;13.25;;;;;;;;;;5051899;28;20183;-70
2022/03/08 04:38:24;;;;;;;23.30;11.93;;;;;;;;;;5053193;28;20184;-67
2022/03/08 04:40:50;;;;;;;23.33;12.70;;;;;;;;;;5053114;28;20204;-64
2022/03/08 04:43:16;;;;;;;21.67;12.30;;;;;;;;;;5053329;28;20415;-63
2022/03/08 04:45:42;;;;;;;20.25;11.23;;;;;;;;;;5053196;28;20243;-67
2022/03/08 04:48:08;;;;;;;23.48;12.50;;;;;;;;;;5053129;28;20166;-63
2022/03/08 04:50:34;;;;;;;21.63;13.05;;;;;;;;;;5053112;28;20624;-69
2022/03/08 04:53:00;;;;;;;19.93;11.90;;;;;;;;;;5053052;28;20196;-66
2022/03/08 04:55:26;;;;;;;20.27;11.47;;;;;;;;;;5053202;28;20394;-63
2022/03/08 04:57:52;;;;;;;17.58;11.07;;;;;;;;;;5053055;28;20403;-65
2022/03/08 05:00:18;;;;;;;18.70;10.73;;;;;;;;;;5052984;28;20298;-63
2022/03/08 05:02:46;;;;;;;17.20;11.00;;;;;;;;;;5051721;28;20191;-64
2022/03/08 05:05:12;;;;;;;23.05;11.43;;;;;;;;;;5053725;28;20470;-62
2022/03/08 05:07:39;;;;;;;18.53;11.13;;;;;;;;;;5055685;28;20207;-62
2022/03/08 05:10:09;;;;;;;22.85;12.60;;;;;;;;;;5057010;28;20963;-62
2022/03/08 05:12:36;;;;;;;20.85;12.20;;;;;;;;;;5056943;28;20175;-66
2022/03/08 05:15:03;;;;;;;23.45;12.70;;;;;;;;;;5056938;28;20179;-63
2022/03/08 05:17:29;;;;;;;25.63;12.37;;;;;;;;;;5056742;28;20182;-66
2022/03/08 05:19:55;;;;;;;19.33;10.43;;;;;;;;;;5056618;28;20423;-66
2022/03/08 05:22:22;;;;;;;21.23;11.98;;;;;;;;;;5055329;28;20921;-66
2022/03/08 05:24:48;;;;;;;20.70;12.50;;;;;;;;;;5055504;28;20212;-62
2022/03/08 05:27:14;;;;;;;22.57;11.80;;;;;;;;;;5056782;28;20427;-64
2022/03/08 05:29:40;;;;;;;21.77;11.60;;;;;;;;;;5056691;28;20410;-67
2022/03/08 05:32:06;;;;;;;22.40;12.30;;;;;;;;;;5056738;28;20181;-72
2022/03/08 05:34:32;;;;;;;22.65;12.38;;;;;;;;;;5056818;28;20510;-63
2022/03/08 05:36:58;;;;;;;17.23;11.27;;;;;;;;;;5056464;28;20555;-63
2022/03/08 05:39:25;;;;;;;22.55;13.18;;;;;;;;;;5056774;28;20192;-66
2022/03/08 05:41:51;;;;;;;21.60;11.18;;;;;;;;;;5056588;28;20168;-66
2022/03/08 05:44:17;;;;;;;19.95;11.40;;;;;;;;;;5055337;28;20581;-67
2022/03/08 05:46:47;;;;;;;20.65;11.00;;;;;;;;;;5056458;28;20746;-66
2022/03/08 05:49:15;;;;;;;18.53;11.67;;;;;;;;;;5056326;28;20183;-63
2022/03/08 05:51:42;;;;;;;17.67;10.75;;;;;;;;;;5056209;28;20425;-62
2022/03/08 05:54:09;;;;;;;21.57;11.33;;;;;;;;;;5055139;28;20183;-65
2022/03/08 05:56:35;;;;;;;16.95;10.05;;;;;;;;;;5055246;28;20423;-65
2022/03/08 05:59:04;;;;;;;20.57;12.20;;;;;;;;;;5054913;28;20189;-67
2022/03/08 06:01:30;;;;;;;17.43;11.03;;;;;;;;;;5056278;28;20514;-62
2022/03/08 06:03:56;;;;;;;18.77;10.80;;;;;;;;;;5055832;28;20520;-64
2022/03/08 06:06:22;;;;;;;19.63;12.20;;;;;;;;;;5055867;28;20467;-68
2022/03/08 06:08:49;;;;;;;23.20;11.53;;;;;;;;;;5054618;28;20269;-64
2022/03/08 06:11:16;;;;;;;20.05;12.32;;;;;;;;;;5055963;28;20406;-68
2022/03/08 06:13:42;;;;;;;27.40;12.27;;;;;;;;;;5055694;28;20191;-65
2022/03/08 06:16:13;;;;;;;20.38;11.32;;;;;;;;;;5055197;28;20416;-63
2022/03/08 06:18:39;;;;;;;19.47;11.70;;;;;;;;;;5054644;28;20196;-66
2022/03/08 06:21:05;;;;;;;17.35;11.25;;;;;;;;;;5055459;28;20449;-63
2022/03/08 06:23:31;;;;;;;17.85;10.90;;;;;;;;;;5054122;28;20194;-62
2022/03/08 06:25:58;;;;;;;16.70;10.30;;;;;;;;;;5054010;28;20226;-73
2022/03/08 06:28:24;;;;;;;23.90;12.23;;;;;;;;;;5055240;28;20887;-73
2022/03/08 06:30:50;;;;;;;17.47;11.20;;;;;;;;;;5055221;28;20578;-72
2022/03/08 06:33:16;;;;;;;20.10;12.90;;;;;;;;;;5055178;28;20412;-71
2022/03/08 06:35:42;;;;;;;20.70;11.33;;;;;;;;;;5055102;28;20509;-74
2022/03/08 06:38:08;;;;;;;22.07;11.30;;;;;;;;;;5055103;28;20502;-73
2022/03/08 06:40:34;;;;;;;17.27;11.20;;;;;;;;;;5055021;28;20415;-71
2022/03/08 06:43:00;;;;;;;21.53;10.80;;;;;;;;;;5055070;28;20774;-70
2022/03/08 06:45:26;;;;;;;18.27;10.67;;;;;;;;;;5053592;28;20518;-65
2022/03/08 06:47:52;;;;;;;17.70;10.70;;;;;;;;;;5054939;28;20495;-71
2022/03/08 06:50:18;;;;;;;13.98;8.82;;;;;;;;;;5054910;28;20503;-72
2022/03/08 06:52:44;;;;;;;14.47;9.50;;;;;;;;;;5054829;28;20666;-68
2022/03/08 06:55:10;;;;;;;17.77;9.93;;;;;;;;;;5054938;28;20415;-66
2022/03/08 06:57:37;;;;;;;16.30;10.43;;;;;;;;;;5054808;28;20907;-65
2022/03/08 07:00:05;;;;;;;19.40;10.10;;;;;;;;;;5054707;28;20434;-64
2022/03/08 07:02:31;;;;;;;19.60;11.13;;;;;;;;;;5054655;28;20415;-63
2022/03/08 07:04:57;;;;;;;16.73;10.40;;;;;;;;;;5054268;28;20999;-66
2022/03/08 07:07:23;;;;;;;19.80;11.27;;;;;;;;;;5054591;28;20419;-74
2022/03/08 07:09:49;;;;;;;22.50;11.00;;;;;;;;;;5054580;28;20956;-62
2022/03/08 07:12:15;;;;;;;22.70;9.10;;;;;;;;;;5053322;28;20438;-63
2022/03/08 07:14:41;;;;;;;17.00;10.73;;;;;;;;;;5053018;28;20985;-67
2022/03/08 07:17:07;;;;;;;17.53;11.20;;;;;;;;;;5054596;28;20945;-61
2022/03/08 07:19:33;;;;;;;29.40;10.73;;;;;;;;;;5054171;28;20420;-73
2022/03/08 07:21:59;;;;;;;17.27;10.13;;;;;;;;;;5054288;28;20408;-74
2022/03/08 07:24:25;;;;;;;15.33;9.43;;;;;;;;;;5054393;28;20898;-72
2022/03/08 07:26:51;;;;;;;16.90;10.10;;;;;;;;;;5054086;28;20439;-67
2022/03/08 07:29:17;;;;;;;16.23;10.47;;;;;;;;;;5053700;28;20415;-73
2022/03/08 07:31:43;;;;;;;13.97;9.70;;;;;;;;;;5054175;28;20469;-71
2022/03/08 07:34:09;;;;;;;19.87;9.77;;;;;;;;;;5054186;28;20953;-75
2022/03/08 07:36:37;;;;;;;14.00;9.30;;;;;;;;;;5054080;28;20526;-73
2022/03/08 07:39:03;;;;;;;16.53;9.87;;;;;;;;;;5053913;28;20485;-76
2022/03/08 07:41:29;;;;;;;16.23;9.80;;;;;;;;;;5054327;28;20418;-74
2022/03/08 07:43:55;;;;;;;19.60;9.33;;;;;;;;;;5054099;28;20403;-76
2022/03/08 07:46:21;;;;;;;16.03;8.93;;;;;;;;;;5054031;28;20582;-73
2022/03/08 07:48:47;;;;;;;13.37;8.67;;;;;;;;;;5053934;28;20407;-73
2022/03/08 07:51:13;;;;;;;15.50;9.43;;;;;;;;;;5053878;28;20411;-74
2022/03/08 07:53:39;;;;;;;14.10;8.40;;;;;;;;;;5053756;28;20434;-75
2022/03/08 07:56:05;;;;;;;15.13;9.10;;;;;;;;;;5053706;28;20423;-76
2022/03/08 07:58:31;;;;;;;21.83;9.63;;;;;;;;;;5053668;28;20492;-74
2022/03/08 08:00:57;;;;;;;10.23;7.47;;;;;;;;;;5053576;28;20957;-73
2022/03/08 08:03:23;;;;;;;12.07;8.60;;;;;;;;;;5053283;28;20453;-75
2022/03/08 08:05:51;;;;;;;12.07;8.10;;;;;;;;;;5053458;28;20486;-74
2022/03/08 08:08:17;;;;;;;12.60;8.50;;;;;;;;;;5053610;28;20498;-75
2022/03/08 08:10:43;;;;;;;12.57;7.87;;;;;;;;;;5053596;28;21009;-65
2022/03/08 08:13:09;;;;;;;10.60;7.67;;;;;;;;;;5053565;28;20490;-73
2022/03/08 08:15:37;;;;;;;12.20;7.87;;;;;;;;;;5053275;28;20454;-73
2022/03/08 08:18:03;;;;;;;12.70;8.13;;;;;;;;;;5053293;28;21004;-75
2022/03/08 08:20:29;;;;;;;11.60;8.17;;;;;;;;;;5053264;28;20891;-65
2022/03/08 08:22:55;;;;;;;14.03;8.43;;;;;;;;;;5053187;28;20953;-67
2022/03/08 08:25:21;;;;;;;17.03;8.73;;;;;;;;;;5053143;28;20476;-63
2022/03/08 08:27:47;;;;;;;13.00;8.20;;;;;;;;;;5053097;28;20449;-70
2022/03/08 08:30:13;;;;;;;11.77;8.23;;;;;;;;;;5053174;28;20426;-65
2022/03/08 08:32:40;;;;;;;15.07;8.43;;;;;;;;;;5053222;28;20418;-66
2022/03/08 08:35:07;;;;;;;15.67;9.30;;;;;;;;;;5053182;28;20406;-71
2022/03/08 08:37:33;;;;;;;10.97;8.10;;;;;;;;;;5053168;28;20426;-65
2022/03/08 08:39:59;;;;;;;14.33;9.50;;;;;;;;;;5052176;28;20401;-63
2022/03/08 08:42:25;;;;;;;13.33;8.10;;;;;;;;;;5053136;28;20418;-69
2022/03/08 08:44:51;;;;;;;10.67;8.13;;;;;;;;;;5052920;28;20463;-62
2022/03/08 08:47:17;;;;;;;13.47;9.27;;;;;;;;;;5053053;28;20411;-62
2022/03/08 08:49:43;;;;;;;10.60;7.83;;;;;;;;;;5053088;28;20912;-66
2022/03/08 08:52:09;;;;;;;11.77;8.07;;;;;;;;;;5052963;28;20960;-65
2022/03/08 08:54:35;;;;;;;15.47;8.33;;;;;;;;;;5052978;28;20441;-64
2022/03/08 08:57:01;;;;;;;10.10;7.63;;;;;;;;;;5052824;28;20736;-63
2022/03/08 08:59:27;;;;;;;9.93;7.90;;;;;;;;;;5052729;28;20414;-62
2022/03/08 09:01:53;;;;;;;10.10;7.50;;;;;;;;;;5053030;28;20449;-64
2022/03/08 09:04:19;;;;;;;12.10;7.97;;;;;;;;;;5052602;28;20465;-61
2022/03/08 09:06:45;;;;;;;11.50;7.17;;;;;;;;;;5052936;28;20502;-62
2022/03/08 09:09:12;;;;;;;12.57;7.67;;;;;;;;;;5052999;28;20438;-67
2022/03/08 09:11:38;;;;;;;11.30;7.20;;;;;;;;;;5052852;28;20434;-75
2022/03/08 09:14:04;;;;;;;9.40;6.97;;;;;;;;;;5052812;28;20541;-61
2022/03/08 09:16:30;;;;;;;10.63;7.20;;;;;;;;;;5052833;28;20769;-69
2022/03/08 09:18:57;;;;;;;8.87;7.03;;;;;;;;;;5051304;28;20418;-69
2022/03/08 09:21:23;;;;;;;7.37;6.57;;;;;;;;;;5052787;28;20443;-73
2022/03/08 09:23:49;;;;;;;10.63;7.47;;;;;;;;;;5052642;28;20552;-67
2022/03/08 09:26:15;;;;;;;13.73;7.43;;;;;;;;;;5052589;28;20497;-63
2022/03/08 09:28:41;;;;;;;13.53;7.10;;;;;;;;;;5052633;28;20764;-62
2022/03/08 09:31:07;;;;;;;8.57;6.23;;;;;;;;;;5052541;28;20417;-62
2022/03/08 09:33:33;;;;;;;9.93;7.23;;;;;;;;;;5052425;28;20413;-70
2022/03/08 09:35:59;;;;;;;8.47;6.70;;;;;;;;;;5052678;28;20415;-69
2022/03/08 09:38:25;;;;;;;10.87;6.97;;;;;;;;;;5052455;28;20830;-68
2022/03/08 09:40:52;;;;;;;8.70;6.40;;;;;;;;;;5052413;28;20419;-67
2022/03/08 09:43:19;;;;;;;9.80;7.00;;;;;;;;;;5052696;28;20407;-62
2022/03/08 09:45:45;;;;;;;10.23;6.17;;;;;;;;;;5052606;28;20474;-65
2022/03/08 09:48:11;;;;;;;8.00;6.03;;;;;;;;;;5052514;28;20409;-67
2022/03/08 09:50:37;;;;;;;11.03;6.80;;;;;;;;;;5052741;28;20407;-63
2022/03/08 09:53:04;;;;;;;10.30;7.10;;;;;;;;;;5056378;28;21023;-63
2022/03/08 09:55:30;;;;;;;7.87;6.17;;;;;;;;;;5056365;28;20502;-69
2022/03/08 09:57:56;;;;;;;9.93;6.03;;;;;;;;;;5055828;28;20405;-69
2022/03/08 10:00:23;;;;;;;11.83;6.70;;;;;;;;;;5055931;28;20428;-69
2022/03/08 10:02:56;;;;;;;11.50;5.77;;;;;;;;;;5055983;28;20401;-63
2022/03/08 10:05:24;;;;;;;9.80;6.17;;;;;;;;;;5055508;28;20475;-64
2022/03/08 10:08:10;;;;;;;8.47;6.40;;;;;;;;;;5055847;28;20411;-62
2022/03/08 10:10:58;;;;;;;8.17;5.90;;;;;;;;;;5054892;28;20413;-67
2022/03/08 10:13:26;;;;;;;7.63;6.57;;;;;;;;;;5055943;28;20415;-63
2022/03/08 10:16:10;;;;;;;9.50;6.40;;;;;;;;;;5055597;28;21016;-62
2022/03/08 10:18:37;;;;;;;10.70;6.40;;;;;;;;;;5055557;28;20410;-73
2022/03/08 10:21:03;;;;;;;9.30;6.00;;;;;;;;;;5055753;28;20411;-64
2022/03/08 10:23:39;;;;;;;10.33;6.87;;;;;;;;;;5055587;28;20426;-76
2022/03/08 10:26:05;;;;;;;7.97;5.73;;;;;;;;;;5055779;28;20821;-71
2022/03/08 10:28:31;;;;;;;8.50;6.07;;;;;;;;;;5055919;28;20411;-66
2022/03/08 10:30:57;;;;;;;7.07;5.83;;;;;;;;;;5056794;28;20415;-69
2022/03/08 10:33:33;;;;;;;8.10;5.70;;;;;;;;;;5056845;28;20415;-71
2022/03/08 10:35:59;;;;;;;7.80;5.73;;;;;;;;;;5055541;28;20484;-70
2022/03/08 10:38:25;;;;;;;9.93;6.03;;;;;;;;;;5055212;28;20891;-79
2022/03/08 10:40:51;;;;;;;9.00;6.13;;;;;;;;;;5055200;28;20501;-75
2022/03/08 10:43:18;;;;;;;8.07;6.20;;;;;;;;;;5055403;28;20443;-69
2022/03/08 10:45:45;;;;;;;9.70;6.27;;;;;;;;;;5055187;28;20505;-67
2022/03/08 10:48:18;;;;;;;6.50;5.63;;;;;;;;;;5054959;28;20446;-78
2022/03/08 10:50:44;;;;;;;7.57;5.33;;;;;;;;;;5055154;28;20418;-63
2022/03/08 10:53:11;;;;;;;7.70;4.97;;;;;;;;;;5054785;28;20924;-67
2022/03/08 10:55:45;;;;;;;7.03;5.10;;;;;;;;;;5055118;28;20415;-65
2022/03/08 10:58:12;;;;;;;7.23;5.53;;;;;;;;;;5054929;28;20433;-63
2022/03/08 11:00:41;;;;;;;9.60;6.03;;;;;;;;;;5054756;28;20473;-63
2022/03/08 11:03:08;;;;;;;9.73;6.20;;;;;;;;;;5053997;28;20403;-63
2022/03/08 11:05:34;;;;;;;8.50;5.30;;;;;;;;;;5054816;28;20884;-71
2022/03/08 11:08:00;;;;;;;17.43;5.70;;;;;;;;;;5054419;28;20446;-67
2022/03/08 11:10:26;;;;;;;9.90;6.27;;;;;;;;;;5054990;28;20485;-72
2022/03/08 11:12:54;;;;;;;13.00;5.30;;;;;;;;;;5054986;28;20430;-78
2022/03/08 11:15:21;;;;;;;6.70;5.23;;;;;;;;;;5054787;28;20456;-77
2022/03/08 11:17:48;;;;;;;6.93;5.50;;;;;;;;;;5054730;28;20398;-76
2022/03/08 11:20:16;;;;;;;6.40;4.80;;;;;;;;;;5054653;28;20397;-77
2022/03/08 11:22:43;;;;;;;8.33;5.40;;;;;;;;;;5054485;28;20941;-75
2022/03/08 11:25:10;;;;;;;7.70;5.47;;;;;;;;;;5053164;28;20468;-74
2022/03/08 11:27:37;;;;;;;7.93;5.63;;;;;;;;;;5054374;28;20434;-63
2022/03/08 11:30:04;;;;;;;9.50;6.07;;;;;;;;;;5054478;28;20410;-69
2022/03/08 11:32:35;;;;;;;8.10;5.17;;;;;;;;;;5054558;28;20836;-64
2022/03/08 11:35:13;;;;;;;7.50;5.30;;;;;;;;;;5054637;28;20404;-63
2022/03/08 11:37:40;;;;;;;6.43;5.00;;;;;;;;;;5054284;28;20924;-63
2022/03/08 11:40:07;;;;;;;6.10;4.50;;;;;;;;;;5054087;28;20402;-63
2022/03/08 11:42:34;;;;;;;8.00;4.93;;;;;;;;;;5053923;28;20442;-62
2022/03/08 11:45:02;;;;;;;7.30;5.63;;;;;;;;;;5053844;28;20449;-67
2022/03/08 11:47:41;;;;;;;7.60;5.40;;;;;;;;;;5053877;28;20450;-66
2022/03/08 11:50:28;;;;;;;7.60;5.13;;;;;;;;;;5053921;28;20399;-62
2022/03/08 11:53:11;;;;;;;6.37;5.30;;;;;;;;;;5053675;28;20567;-62
2022/03/08 11:55:46;;;;;;;10.10;6.13;;;;;;;;;;5053968;28;20511;-63
2022/03/08 11:58:13;;;;;;;8.03;6.40;;;;;;;;;;5052566;28;20496;-62
2022/03/08 12:00:40;;;;;;;7.57;5.10;;;;;;;;;;5053880;28;20442;-62
2022/03/08 12:03:16;;;;;;;7.73;5.37;;;;;;;;;;5054514;28;20473;-64
2022/03/08 12:05:44;;;;;;;8.30;5.93;;;;;;;;;;5053727;28;20558;-77
2022/03/08 12:08:23;;;;;;;10.97;6.30;;;;;;;;;;5053539;28;20417;-78
2022/03/08 12:10:49;;;;;;;7.37;5.43;;;;;;;;;;5053595;28;20405;-79
2022/03/08 12:13:16;;;;;;;6.13;5.10;;;;;;;;;;5053568;28;20405;-74
2022/03/08 12:16:00;;;;;;;8.70;5.47;;;;;;;;;;5053387;28;20433;-70
2022/03/08 12:18:45;;;;;;;7.50;5.60;;;;;;;;;;5053322;28;20409;-74
2022/03/08 12:21:17;;;;;;;9.40;6.23;;;;;;;;;;5053454;28;20424;-78
2022/03/08 12:24:02;;;;;;;8.73;5.97;;;;;;;;;;5053371;28;20425;-76
2022/03/08 12:26:46;;;;;;;7.43;6.23;;;;;;;;;;5053201;28;20477;-63
2022/03/08 12:29:16;;;;;;;8.93;6.33;;;;;;;;;;5053155;28;20463;-63
2022/03/08 12:31:57;;;;;;;9.23;6.13;;;;;;;;;;5053172;28;20406;-61
2022/03/08 12:34:39;;;;;;;7.73;6.40;;;;;;;;;;5053233;28;20401;-66
2022/03/08 12:37:31;;;;;;;9.93;6.57;;;;;;;;;;5053370;28;20496;-68
2022/03/08 12:40:30;;;;;;;10.60;6.53;;;;;;;;;;5052715;28;20483;-66
2022/03/08 12:43:04;;;;;;;9.80;7.30;;;;;;;;;;5051594;28;20418;-63
2022/03/08 12:45:30;;;;;;;9.43;6.37;;;;;;;;;;5053145;28;20530;-65
2022/03/08 12:48:09;;;;;;;9.17;6.57;;;;;;;;;;5052971;28;20405;-63
2022/03/08 12:50:37;;;;;;;9.00;6.60;;;;;;;;;;5051723;28;20402;-72
2022/03/08 12:53:09;;;;;;;13.53;8.40;;;;;;;;;;5052640;28;20805;-70
2022/03/08 12:55:37;;;;;;;8.17;6.53;;;;;;;;;;5053158;28;20403;-67
2022/03/08 12:58:05;;;;;;;8.03;6.37;;;;;;;;;;5052971;28;20974;-62
2022/03/08 13:00:40;;;;;;;9.10;6.47;;;;;;;;;;5051993;28;20448;-75
2022/03/08 13:03:08;;;;;;;8.63;7.40;;;;;;;;;;5052777;28;20808;-73
2022/03/08 13:05:35;;;;;;;11.00;6.60;;;;;;;;;;5052950;28;20544;-77
2022/03/08 13:08:01;;;;;;;9.40;6.90;;;;;;;;;;5053046;28;20406;-77
2022/03/08 13:10:28;;;;;;;15.03;7.10;;;;;;;;;;5053034;28;20410;-78
2022/03/08 13:12:59;;;;;;;8.97;6.70;;;;;;;;;;5053090;28;20492;-76
2022/03/08 13:15:26;;;;;;;9.27;6.37;;;;;;;;;;5053104;28;20444;-72
2022/03/08 13:17:56;;;;;;;8.10;6.87;;;;;;;;;;5052815;28;20432;-73
2022/03/08 13:20:28;;;;;;;11.43;6.80;;;;;;;;;;5052854;28;20462;-71
2022/03/08 13:22:56;;;;;;;9.00;6.63;;;;;;;;;;5052896;28;20802;-76
2022/03/08 13:25:22;;;;;;;9.20;5.93;;;;;;;;;;5052774;28;20541;-65
2022/03/08 13:27:49;;;;;;;11.10;7.10;;;;;;;;;;5055898;28;20445;-62
2022/03/08 13:30:24;;;;;;;10.77;6.60;;;;;;;;;;5056670;28;20428;-70
2022/03/08 13:33:08;;;;;;;8.80;5.90;;;;;;;;;;5056573;28;20459;-74
2022/03/08 13:35:35;;;;;;;9.47;5.40;;;;;;;;;;5057688;28;20435;-69
2022/03/08 13:38:01;;;;;;;8.00;5.70;;;;;;;;;;5056040;28;20901;-64
2022/03/08 13:40:28;;;;;;;8.10;5.97;;;;;;;;;;5056374;28;20408;-74
2022/03/08 13:42:57;;;;;;;7.10;5.60;;;;;;;;;;5056308;28;20483;-66
2022/03/08 13:45:24;;;;;;;9.60;6.87;;;;;;;;;;5056265;28;20476;-65
2022/03/08 13:47:55;;;;;;;7.90;5.80;;;;;;;;;;5056195;28;20413;-65
2022/03/08 13:50:25;;;;;;;6.60;5.17;;;;;;;;;;5056279;28;20481;-68
2022/03/08 13:52:54;;;;;;;7.10;6.07;;;;;;;;;;5056136;28;20483;-71
2022/03/08 13:55:25;;;;;;;8.90;6.20;;;;;;;;;;5055994;28;20429;-68
2022/03/08 13:58:02;;;;;;;10.67;6.27;;;;;;;;;;5056554;28;20773;-68
2022/03/08 14:00:29;;;;;;;8.73;5.93;;;;;;;;;;5056077;28;20422;-75
2022/03/08 14:02:56;;;;;;;8.97;5.63;;;;;;;;;;5055955;28;20928;-78
2022/03/08 14:05:22;;;;;;;8.53;6.27;;;;;;;;;;5055815;28;20472;-75
2022/03/08 14:07:58;;;;;;;8.43;5.50;;;;;;;;;;5055837;28;20425;-75
2022/03/08 14:10:25;;;;;;;7.60;5.73;;;;;;;;;;5056016;28;20446;-76
2022/03/08 14:12:51;;;;;;;12.47;5.60;;;;;;;;;;5055932;28;20817;-76
2022/03/08 14:15:21;;;;;;;8.17;6.30;;;;;;;;;;5055646;28;20502;-76
2022/03/08 14:17:49;;;;;;;10.30;6.60;;;;;;;;;;5055588;28;20414;-75
2022/03/08 14:20:16;;;;;;;8.57;6.03;;;;;;;;;;5054140;28;20417;-73
2022/03/08 14:22:59;;;;;;;8.77;5.63;;;;;;;;;;5055868;28;20429;-73
2022/03/08 14:25:25;;;;;;;8.10;6.30;;;;;;;;;;5055602;28;20948;-77
2022/03/08 14:27:52;;;;;;;8.93;6.23;;;;;;;;;;5055478;28;20931;-75